Terminal Aerodrome Forecast
Issued by NWS Sioux Falls, SD

Home | Current Version | Previous Version | Graphics & Text | Print | Product List | Glossary On
Versions: 1 2 3 4 5 6 7 8 9 10 11 12 13 14 15 16
000
FTUS43 KFSD 130520
TAFFSD
TAF
KFSD 130520Z 1306/1406 25008KT P6SM SCT250 WS010/29040KT
     FM130800 28012KT P6SM BKN250 WS010/30045KT
     FM131200 31019G29KT P6SM SCT140
     FM131400 32022G32KT P6SM BKN100
     FM131800 34026G35KT P6SM OVC025
     FM140200 34012G21KT P6SM BKN045
     FM140500 34009KT P6SM BKN030=

USA.gov is the U.S. government's official web portal to all federal, state and local government web resources and services.